Cfl Performer — PHLY — position and weather

sailwx.info

Track history (hours):
 
Tides and Currents Weather Stations Pressure Air Temp Water Temp Dewpoint Dewpoint Depression Visibility Wind Speed Wind Dir Waves Ship Positions

Cfl Performer

Last reported at 2014-Dec-10 14:33 UTC. Time now 2014-Dec-20 17:57 UTC.
Position N 43°41' W 005°58'.
Warning: this ship's position is 10 days out of date.

Length 117 m; draft 3.8 m.

Type: Cargo ship. MMSI: 244989000.

Date/timePositionNaut miles runAvg speedWind from/ knotsBaromVisibWave heightAir tempDewpointWater temp
2014-Dec-10 14:33N 43°41' W 005°58'505 9.9
2014-Dec-08 11:25N 52°06' W 005°45'8 8.9
2014-Dec-08 10:33N 52°13' W 005°40'8 8.0
2014-Dec-08 09:33N 52°21' W 005°35'116 7.2
2014-Dec-07 17:33N 54°06' W 004°14'9 9.3
2014-Dec-07 16:33N 54°13' W 004°05'9 9.5
2014-Dec-07 15:33N 54°21' W 003°56'9 8.5
2014-Dec-07 14:31N 54°29' W 003°48'23 0.6
2014-Dec-06 02:27N 54°13' W 004°16'6 6.4
2014-Dec-06 01:33N 54°08' W 004°20'6 6.0
2014-Dec-06 00:31N 54°02' W 004°26'108 7.1
2014-Dec-05 09:18N 52°22' W 005°32'6 7.8
2014-Dec-05 08:33N 52°16' W 005°34'8 8.1
2014-Dec-05 07:33N 52°08' W 005°38'  
2014-Nov-30 17:32N 39°10' W 009°51'8 7.7
2014-Nov-30 16:33N 39°03' W 009°52'9 7.6
2014-Nov-30 15:20N 38°54' W 009°52'6 7.6
2014-Nov-30 14:33N 38°48' W 009°52'  
Track history (hours):
 
Tides and Currents Weather Stations Pressure Air Temp Water Temp Dewpoint Dewpoint Depression Visibility Wind Speed Wind Dir Waves Ship Positions

Cfl Performer

Last reported at 2014-Dec-10 14:33 UTC. Time now 2014-Dec-20 17:57 UTC.
Position N 43°41' W 005°58'.
Warning: this ship's position is 10 days out of date.

Length 117 m; draft 3.8 m.

Type: Cargo ship. MMSI: 244989000.

Date/timePositionNaut miles runAvg speedWind from/ knotsBaromVisibWave heightAir tempDewpointWater temp
2014-Dec-10 14:33N 43°41' W 005°58'505 9.9
2014-Dec-08 11:25N 52°06' W 005°45'8 8.9
2014-Dec-08 10:33N 52°13' W 005°40'8 8.0
2014-Dec-08 09:33N 52°21' W 005°35'116 7.2
2014-Dec-07 17:33N 54°06' W 004°14'9 9.3
2014-Dec-07 16:33N 54°13' W 004°05'9 9.5
2014-Dec-07 15:33N 54°21' W 003°56'9 8.5
2014-Dec-07 14:31N 54°29' W 003°48'23 0.6
2014-Dec-06 02:27N 54°13' W 004°16'6 6.4
2014-Dec-06 01:33N 54°08' W 004°20'6 6.0
2014-Dec-06 00:31N 54°02' W 004°26'108 7.1
2014-Dec-05 09:18N 52°22' W 005°32'6 7.8
2014-Dec-05 08:33N 52°16' W 005°34'8 8.1
2014-Dec-05 07:33N 52°08' W 005°38'  
2014-Nov-30 17:32N 39°10' W 009°51'8 7.7
2014-Nov-30 16:33N 39°03' W 009°52'9 7.6
2014-Nov-30 15:20N 38°54' W 009°52'6 7.6
2014-Nov-30 14:33N 38°48' W 009°52'  

Dump ship's entire track history